createdAt,value
2022-12-11T00:00:09.533Z,67.03
2022-12-11T00:02:36.368Z,69.95
2022-12-11T00:05:03.421Z,66.40
2022-12-11T00:07:31.613Z,71.35
2022-12-11T00:09:58.221Z,66.53
2022-12-11T00:12:25.103Z,73.75
2022-12-11T00:14:53.069Z,69.60
2022-12-11T00:17:19.861Z,69.88
2022-12-11T00:19:46.587Z,70.45
2022-12-11T00:22:13.232Z,64.28
2022-12-11T00:24:41.260Z,68.18
2022-12-11T00:27:07.922Z,69.50
2022-12-11T00:29:34.555Z,69.53
2022-12-11T00:32:01.405Z,74.40
2022-12-11T00:34:28.337Z,69.68
2022-12-11T00:36:55.033Z,70.95
2022-12-11T00:39:21.782Z,72.28
2022-12-11T00:41:49.909Z,70.45
2022-12-11T00:44:16.548Z,72.30
2022-12-11T00:46:43.239Z,72.72
2022-12-11T00:49:10.326Z,69.60
2022-12-11T00:51:37.083Z,71.05
2022-12-11T00:54:04.138Z,76.82
2022-12-11T00:56:30.884Z,68.22
2022-12-11T00:58:58.926Z,73.25
2022-12-11T01:01:25.739Z,70.75
2022-12-11T01:03:53.477Z,78.30
2022-12-11T01:06:22.952Z,69.75
2022-12-11T01:08:49.882Z,75.28
2022-12-11T01:11:17.210Z,70.47
2022-12-11T01:13:43.996Z,65.10
2022-12-11T01:16:15.563Z,71.20
2022-12-11T01:18:42.456Z,67.43
2022-12-11T01:21:10.935Z,68.80
2022-12-11T01:23:37.908Z,61.53
2022-12-11T01:26:06.475Z,68.93
2022-12-11T01:28:33.076Z,68.53
2022-12-11T01:31:00.225Z,73.53
2022-12-11T01:33:28.793Z,70.05
2022-12-11T01:35:55.495Z,64.78
2022-12-11T01:38:22.372Z,71.45
2022-12-11T01:40:51.197Z,59.40
2022-12-11T01:43:18.773Z,61.88
2022-12-11T01:45:47.363Z,63.10
2022-12-11T01:48:17.635Z,53.63
2022-12-11T01:50:49.898Z,62.85
2022-12-11T01:53:20.370Z,65.45
2022-12-11T01:55:49.003Z,57.33
2022-12-11T01:58:17.555Z,58.20
2022-12-11T02:00:44.332Z,60.10
2022-12-11T02:03:11.118Z,60.53
2022-12-11T02:05:38.217Z,58.78
2022-12-11T02:08:07.583Z,57.00
2022-12-11T02:10:52.849Z,57.65
2022-12-11T02:13:27.419Z,52.42
2022-12-11T02:16:01.150Z,53.15
2022-12-11T02:18:34.891Z,52.47
2022-12-11T02:21:07.223Z,50.75
2022-12-11T02:23:51.582Z,52.50
2022-12-11T02:26:39.994Z,58.72
2022-12-11T02:29:12.924Z,54.63
2022-12-11T02:31:45.183Z,50.50
2022-12-11T02:34:17.265Z,51.75
2022-12-11T02:36:48.906Z,52.88
2022-12-11T02:39:17.701Z,58.08
2022-12-11T02:41:48.657Z,48.97
2022-12-11T02:44:21.453Z,51.90
2022-12-11T02:49:15.865Z,52.40
2022-12-11T02:51:43.705Z,51.10
2022-12-11T02:54:13.746Z,52.78
2022-12-11T02:56:44.814Z,51.50
2022-12-11T02:59:18.976Z,49.40
2022-12-11T03:01:46.494Z,50.22
2022-12-11T03:04:13.419Z,46.53
2022-12-11T03:06:45.575Z,58.53
2022-12-11T03:09:12.871Z,50.55
2022-12-11T03:11:39.520Z,47.75
2022-12-11T03:14:08.016Z,49.47
2022-12-11T03:16:38.283Z,49.50
2022-12-11T03:19:13.700Z,43.75
2022-12-11T03:21:45.548Z,48.80
2022-12-11T03:24:20.071Z,46.22
2022-12-11T03:27:00.170Z,47.40
2022-12-11T03:29:35.077Z,49.63
2022-12-11T03:32:08.301Z,54.47
2022-12-11T03:34:41.345Z,54.00
2022-12-11T03:37:10.514Z,47.75
2022-12-11T03:39:41.171Z,47.03
2022-12-11T03:42:12.367Z,45.33
2022-12-11T03:44:41.112Z,45.15
2022-12-11T03:47:10.580Z,44.83
2022-12-11T03:49:41.913Z,43.63
2022-12-11T03:52:12.631Z,44.22
2022-12-11T03:54:41.131Z,43.67
2022-12-11T03:57:10.067Z,46.40
2022-12-11T03:59:36.941Z,48.25
2022-12-11T04:02:03.710Z,47.72
2022-12-11T04:04:31.995Z,47.30
2022-12-11T04:06:58.736Z,45.20
2022-12-11T04:09:25.629Z,40.22
2022-12-11T04:11:52.255Z,43.17
2022-12-11T04:14:19.876Z,43.15
2022-12-11T04:16:46.625Z,43.55
2022-12-11T04:19:13.558Z,41.85
2022-12-11T04:21:41.735Z,39.67
2022-12-11T04:24:09.316Z,44.60
2022-12-11T04:26:36.801Z,43.78
2022-12-11T04:29:03.545Z,42.85
2022-12-11T04:31:30.365Z,40.42
2022-12-11T04:33:57.033Z,43.17
2022-12-11T04:36:23.791Z,44.35
2022-12-11T04:38:51.906Z,39.72
2022-12-11T04:41:18.869Z,41.65
2022-12-11T04:43:45.720Z,36.83
2022-12-11T04:46:14.708Z,38.47
2022-12-11T04:48:41.938Z,37.17
2022-12-11T04:51:09.229Z,39.38
2022-12-11T04:53:36.655Z,37.42
2022-12-11T04:56:07.417Z,39.45
2022-12-11T04:58:34.788Z,34.83
2022-12-11T05:01:06.675Z,41.13
2022-12-11T05:03:33.329Z,38.40
2022-12-11T05:05:59.969Z,36.90
2022-12-11T05:08:26.689Z,38.13
2022-12-11T05:10:57.246Z,36.47
2022-12-11T05:13:26.900Z,37.75
2022-12-11T05:15:53.972Z,36.88
2022-12-11T05:18:21.073Z,35.63
2022-12-11T05:20:55.405Z,38.35
2022-12-11T05:23:22.365Z,35.92
2022-12-11T05:25:52.296Z,35.15
2022-12-11T05:28:19.007Z,35.80
2022-12-11T05:30:47.316Z,36.33
2022-12-11T05:33:14.278Z,33.13
2022-12-11T05:35:47.141Z,39.58
2022-12-11T05:38:13.995Z,31.67
2022-12-11T05:40:40.671Z,32.53
2022-12-11T05:43:07.590Z,33.13
2022-12-11T05:45:34.804Z,33.72
2022-12-11T05:48:02.951Z,31.65
2022-12-11T05:50:29.542Z,30.75
2022-12-11T05:52:56.318Z,34.28
2022-12-11T05:55:23.053Z,32.65
2022-12-11T05:57:50.299Z,32.78
2022-12-11T06:00:16.916Z,34.28
2022-12-11T06:02:43.810Z,29.52
2022-12-11T06:05:12.461Z,29.70
2022-12-11T06:07:39.411Z,32.22
2022-12-11T06:10:07.012Z,30.38
2022-12-11T06:12:33.663Z,30.73
2022-12-11T06:15:00.327Z,32.95
2022-12-11T06:17:27.042Z,33.00
2022-12-11T06:19:53.669Z,34.90
2022-12-11T06:22:22.079Z,33.42
2022-12-11T06:24:48.716Z,32.65
2022-12-11T06:27:17.123Z,30.50
2022-12-11T06:29:43.769Z,32.80
2022-12-11T06:32:10.565Z,27.00
2022-12-11T06:34:37.261Z,32.25
2022-12-11T06:37:03.986Z,28.45
2022-12-11T06:39:32.427Z,31.73
2022-12-11T06:41:59.288Z,29.92
2022-12-11T06:44:26.028Z,27.60
2022-12-11T06:46:52.712Z,28.27
2022-12-11T06:49:19.384Z,32.75
2022-12-11T06:51:46.096Z,29.77
2022-12-11T06:54:12.879Z,28.38
2022-12-11T06:56:40.916Z,28.63
2022-12-11T06:59:11.417Z,27.83
2022-12-11T07:01:38.152Z,23.75
2022-12-11T07:04:04.958Z,27.48
2022-12-11T07:06:31.769Z,26.27
2022-12-11T07:08:58.375Z,27.20
2022-12-11T07:11:25.180Z,27.27
2022-12-11T07:13:53.333Z,28.55
2022-12-11T07:16:20.107Z,25.40
2022-12-11T07:18:48.620Z,26.15
2022-12-11T07:21:15.932Z,27.10
2022-12-11T07:23:43.245Z,27.25
2022-12-11T07:26:13.153Z,25.85
2022-12-11T07:28:40.235Z,27.33
2022-12-11T07:31:09.740Z,32.10
2022-12-11T07:33:37.256Z,27.38
2022-12-11T07:36:06.505Z,26.75
2022-12-11T07:38:33.593Z,25.00
2022-12-11T07:41:01.074Z,26.48
2022-12-11T07:43:28.042Z,26.15
2022-12-11T07:45:54.753Z,28.70
2022-12-11T07:48:22.898Z,24.73
2022-12-11T07:50:49.513Z,29.30
2022-12-11T07:53:16.386Z,27.63
2022-12-11T07:55:43.128Z,25.92
2022-12-11T07:58:09.968Z,24.40
2022-12-11T08:00:37.458Z,24.48
2022-12-11T08:03:04.411Z,27.17
2022-12-11T08:05:32.399Z,25.85
2022-12-11T08:08:25.594Z,23.48
2022-12-11T08:10:52.398Z,29.67
2022-12-11T08:13:19.105Z,23.80
2022-12-11T08:15:45.919Z,25.50
2022-12-11T08:18:14.078Z,26.80
2022-12-11T08:20:42.128Z,24.13
2022-12-11T08:23:11.654Z,25.30
2022-12-11T08:25:38.541Z,23.83
2022-12-11T08:28:05.464Z,22.48
2022-12-11T08:30:32.347Z,22.27
2022-12-11T08:32:59.198Z,24.02
2022-12-11T08:35:26.174Z,26.85
2022-12-11T08:37:54.336Z,24.83
2022-12-11T08:40:21.143Z,24.08
2022-12-11T08:42:48.670Z,20.80
2022-12-11T08:45:16.055Z,20.88
2022-12-11T08:47:42.813Z,20.42
2022-12-11T08:50:10.276Z,23.17
2022-12-11T08:52:37.210Z,20.70
2022-12-11T08:55:06.464Z,23.52
2022-12-11T08:57:33.149Z,22.13
2022-12-11T09:00:00.001Z,22.15
2022-12-11T09:02:26.773Z,21.10
2022-12-11T09:04:53.509Z,17.45
2022-12-11T09:07:20.248Z,22.42
2022-12-11T09:09:47.039Z,20.73
2022-12-11T09:12:15.238Z,20.67
2022-12-11T09:14:42.056Z,21.60
2022-12-11T09:17:08.716Z,19.50
2022-12-11T09:19:35.412Z,19.70
2022-12-11T09:22:02.182Z,20.40
2022-12-11T09:24:28.934Z,20.80
2022-12-11T09:26:55.639Z,21.73
2022-12-11T09:29:23.728Z,19.35
2022-12-11T09:31:50.444Z,19.88
2022-12-11T09:34:17.209Z,21.38
2022-12-11T09:36:43.957Z,17.48
2022-12-11T09:39:12.207Z,19.90
2022-12-11T09:41:45.845Z,19.02
2022-12-11T09:44:20.129Z,22.13
2022-12-11T09:46:49.973Z,22.55
2022-12-11T09:49:28.557Z,19.33
2022-12-11T09:52:07.027Z,23.02
2022-12-11T09:54:34.613Z,22.13
2022-12-11T09:57:10.795Z,24.55
2022-12-11T09:59:48.561Z,20.67
2022-12-11T10:02:30.510Z,22.65
2022-12-11T10:05:07.941Z,21.17
2022-12-11T10:07:39.009Z,18.48
2022-12-11T10:10:18.478Z,20.40
2022-12-11T10:12:54.078Z,21.48
2022-12-11T10:15:33.680Z,21.00
2022-12-11T10:18:05.515Z,22.60
2022-12-11T10:20:34.223Z,23.80
2022-12-11T10:23:01.450Z,19.45
2022-12-11T10:25:31.319Z,20.67
2022-12-11T10:27:58.289Z,21.42
2022-12-11T10:30:32.950Z,23.63
2022-12-11T10:33:13.170Z,23.95
2022-12-11T10:35:45.395Z,20.45
2022-12-11T10:38:15.962Z,18.10
2022-12-11T10:40:47.686Z,21.52
2022-12-11T10:43:14.588Z,20.38
2022-12-11T10:45:50.542Z,18.30
2022-12-11T10:48:18.815Z,23.33
2022-12-11T10:50:57.336Z,24.30
2022-12-11T10:53:24.758Z,22.58
2022-12-11T10:55:51.940Z,22.25
2022-12-11T10:58:22.749Z,22.70
2022-12-11T11:01:08.778Z,20.83
2022-12-11T11:03:53.921Z,21.05
2022-12-11T11:06:22.223Z,25.05
2022-12-11T11:08:51.064Z,20.52
2022-12-11T11:11:25.797Z,21.40
2022-12-11T11:13:52.747Z,20.55
2022-12-11T11:40:16.126Z,25.27
2022-12-11T11:42:49.262Z,26.83
2022-12-11T11:45:20.611Z,21.55
2022-12-11T11:47:55.663Z,20.75
2022-12-11T11:50:26.710Z,21.83
2022-12-11T11:52:59.706Z,25.08
2022-12-11T11:55:39.752Z,24.73
2022-12-11T11:58:15.172Z,22.42
2022-12-11T12:00:42.490Z,27.55
2022-12-11T12:03:12.457Z,25.30
2022-12-11T12:05:49.857Z,23.45
2022-12-11T12:08:26.315Z,22.63
2022-12-11T12:11:02.882Z,24.42
2022-12-11T12:13:50.663Z,22.90
2022-12-11T12:19:37.504Z,20.38
2022-12-11T12:22:20.758Z,24.05
2022-12-11T12:24:59.185Z,19.52
2022-12-11T12:30:23.196Z,23.38
2022-12-11T12:33:05.618Z,22.33
2022-12-11T12:35:36.222Z,20.67
2022-12-11T12:38:10.859Z,17.30
2022-12-11T12:40:48.523Z,18.48
2022-12-11T12:43:33.364Z,20.70
2022-12-11T12:46:11.509Z,20.23
2022-12-11T12:48:38.911Z,19.52
2022-12-11T12:51:06.647Z,18.52
2022-12-11T12:53:36.933Z,19.63
2022-12-11T12:56:05.550Z,18.65
2022-12-11T12:58:43.338Z,18.67
2022-12-11T13:01:16.950Z,18.95
2022-12-11T13:03:53.930Z,17.70
2022-12-11T13:06:33.976Z,18.88
2022-12-11T13:09:13.380Z,21.25
2022-12-11T13:11:40.129Z,17.50
2022-12-11T13:14:24.302Z,17.60
2022-12-11T13:16:52.379Z,18.67
2022-12-11T13:19:40.626Z,16.58
2022-12-11T13:22:22.648Z,18.13
2022-12-11T13:24:57.448Z,16.02
2022-12-11T13:27:26.381Z,16.05
2022-12-11T13:30:06.395Z,16.73
2022-12-11T13:32:33.972Z,17.95
2022-12-11T13:35:06.295Z,40.25
2022-12-11T13:37:36.591Z,16.13
2022-12-11T13:40:07.395Z,17.73
2022-12-11T13:42:38.836Z,16.30
2022-12-11T13:45:17.901Z,15.32
2022-12-11T13:47:45.802Z,15.85
2022-12-11T13:50:16.496Z,15.80
2022-12-11T13:52:53.203Z,15.80
2022-12-11T13:55:24.417Z,16.80
2022-12-11T13:57:51.223Z,15.07
2022-12-11T14:00:23.181Z,17.55
2022-12-11T14:02:51.749Z,16.63
2022-12-11T14:05:19.348Z,17.70
2022-12-11T14:07:49.078Z,19.65
2022-12-11T14:10:19.391Z,17.55
2022-12-11T14:12:51.465Z,17.85
2022-12-11T14:15:18.861Z,17.45
2022-12-11T14:17:51.470Z,17.50
2022-12-11T14:20:21.525Z,17.85
2022-12-11T14:22:48.279Z,19.98
2022-12-11T14:25:22.400Z,19.17
2022-12-11T14:27:50.723Z,16.45
2022-12-11T14:30:22.669Z,18.90
2022-12-11T14:32:53.231Z,17.90
2022-12-11T14:35:26.103Z,20.92
2022-12-11T14:40:22.832Z,17.75
2022-12-11T14:43:00.003Z,21.05
2022-12-11T14:45:33.634Z,21.67
2022-12-11T14:48:05.278Z,19.77
2022-12-11T14:50:37.981Z,19.48
2022-12-11T14:55:36.824Z,21.75
2022-12-11T14:58:14.823Z,21.88
2022-12-11T15:00:41.572Z,21.77
2022-12-11T15:03:22.577Z,21.35
2022-12-11T15:05:51.581Z,23.95
2022-12-11T15:08:21.103Z,23.60
2022-12-11T15:11:01.239Z,34.38
2022-12-11T15:13:28.104Z,28.80
2022-12-11T15:15:56.059Z,42.40
2022-12-11T15:18:27.138Z,26.33
2022-12-11T15:20:56.855Z,22.83
2022-12-11T15:23:23.968Z,27.75
2022-12-11T15:25:52.493Z,23.95
2022-12-11T15:28:28.517Z,23.85
2022-12-11T15:30:57.116Z,24.42
2022-12-11T15:33:28.467Z,27.40
2022-12-11T15:36:02.215Z,28.13
2022-12-11T15:38:32.224Z,25.23
2022-12-11T15:40:59.831Z,22.60
2022-12-11T15:43:27.738Z,23.23
2022-12-11T15:45:54.598Z,21.52
2022-12-11T15:48:21.241Z,23.30
2022-12-11T15:50:49.645Z,22.20
2022-12-11T15:53:16.247Z,22.38
2022-12-11T15:55:43.128Z,22.25
2022-12-11T15:58:15.800Z,24.73
2022-12-11T16:03:12.384Z,20.60
2022-12-11T16:05:39.364Z,19.92
2022-12-11T16:08:07.909Z,19.73
2022-12-11T16:10:34.672Z,18.60
2022-12-11T16:13:01.359Z,19.15
2022-12-11T16:15:29.061Z,20.42
2022-12-11T16:18:00.937Z,19.42
2022-12-11T16:20:27.730Z,19.20
2022-12-11T16:22:54.337Z,18.73
2022-12-11T16:25:22.396Z,21.67
2022-12-11T16:27:50.009Z,23.13
2022-12-11T16:30:16.704Z,18.20
2022-12-11T16:32:43.697Z,17.50
2022-12-11T16:35:10.769Z,19.17
2022-12-11T16:37:37.887Z,16.80
2022-12-11T16:40:05.681Z,18.92
2022-12-11T16:42:33.937Z,18.20
2022-12-11T16:45:04.906Z,16.48
2022-12-11T16:47:31.823Z,20.00
2022-12-11T16:49:59.359Z,18.25
2022-12-11T16:52:26.011Z,18.33
2022-12-11T16:54:52.622Z,24.08
2022-12-11T16:57:19.542Z,33.53
2022-12-11T16:59:48.432Z,25.05
2022-12-11T17:02:15.326Z,21.15
2022-12-11T17:04:42.327Z,19.42
2022-12-11T17:07:09.061Z,19.30
2022-12-11T17:09:36.048Z,19.73
2022-12-11T17:12:03.630Z,22.23
2022-12-11T17:14:31.001Z,19.70
2022-12-11T17:16:59.248Z,21.08
2022-12-11T17:19:26.012Z,22.30
2022-12-11T17:21:53.007Z,23.58
2022-12-11T17:24:20.150Z,22.42
2022-12-11T17:26:47.099Z,22.92
2022-12-11T17:29:14.479Z,20.92
2022-12-11T17:31:41.365Z,21.45
2022-12-11T17:34:09.607Z,21.95
2022-12-11T17:36:36.260Z,19.02
2022-12-11T17:39:03.069Z,22.73
2022-12-11T17:41:29.804Z,21.55
2022-12-11T17:43:56.500Z,23.17
2022-12-11T17:46:23.374Z,20.55
2022-12-11T17:48:50.377Z,21.17
2022-12-11T17:51:19.197Z,19.63
2022-12-11T17:53:45.986Z,20.38
2022-12-11T17:56:12.654Z,21.08
2022-12-11T17:58:39.344Z,26.77
2022-12-11T18:01:08.603Z,20.75
2022-12-11T18:03:36.119Z,22.30
2022-12-11T18:06:06.148Z,20.52
2022-12-11T18:08:34.486Z,23.42
2022-12-11T18:11:05.337Z,23.75
2022-12-11T18:13:32.383Z,22.23
2022-12-11T18:16:00.942Z,21.85
2022-12-11T18:18:27.778Z,22.70
2022-12-11T18:20:54.463Z,20.67
2022-12-11T18:23:21.362Z,21.10
2022-12-11T18:25:49.421Z,20.73
2022-12-11T18:28:16.161Z,22.00
2022-12-11T18:30:42.928Z,18.52
2022-12-11T18:33:09.718Z,19.73
2022-12-11T18:35:36.702Z,22.50
2022-12-11T18:38:03.475Z,19.77
2022-12-11T18:40:30.490Z,22.23
2022-12-11T18:42:58.693Z,20.95
2022-12-11T18:45:25.393Z,19.80
2022-12-11T18:47:52.041Z,19.42
2022-12-11T18:50:18.730Z,19.27
2022-12-11T18:52:45.442Z,20.88
2022-12-11T18:55:12.590Z,18.38
2022-12-11T18:57:39.588Z,17.95
2022-12-11T19:00:12.888Z,20.98
2022-12-11T19:02:39.730Z,21.85
2022-12-11T19:05:12.979Z,20.52
2022-12-11T19:07:40.035Z,21.90
2022-12-11T19:10:07.350Z,21.92
2022-12-11T19:12:34.034Z,21.60
2022-12-11T19:15:00.625Z,21.60
2022-12-11T19:17:28.610Z,20.55
2022-12-11T19:19:55.234Z,22.85
2022-12-11T19:22:21.990Z,20.67
2022-12-11T19:24:48.617Z,20.95
2022-12-11T19:27:15.308Z,23.98
2022-12-11T19:29:41.949Z,21.15
2022-12-11T19:32:08.681Z,21.80
2022-12-11T19:34:36.723Z,23.40
2022-12-11T19:37:03.374Z,21.27
2022-12-11T19:39:30.109Z,23.42
2022-12-11T19:41:56.698Z,21.85
2022-12-11T19:44:23.375Z,21.90
2022-12-11T19:46:50.137Z,21.85
2022-12-11T19:49:16.869Z,24.30
2022-12-11T19:51:44.810Z,22.20
2022-12-11T19:54:13.888Z,24.83
2022-12-11T19:56:40.780Z,22.50
2022-12-11T19:59:11.399Z,20.80
2022-12-11T20:01:38.512Z,21.90
2022-12-11T20:04:07.298Z,21.52
2022-12-11T20:06:36.208Z,21.95
2022-12-11T20:09:06.026Z,20.73
2022-12-11T20:11:33.620Z,23.63
2022-12-11T20:14:00.302Z,25.30
2022-12-11T20:16:46.180Z,20.80
2022-12-11T20:19:14.112Z,24.48
2022-12-11T20:21:40.857Z,22.63
2022-12-11T20:24:09.353Z,19.42
2022-12-11T20:26:36.512Z,27.08
2022-12-11T20:29:04.317Z,26.85
2022-12-11T20:31:31.448Z,28.55
2022-12-11T20:33:58.201Z,25.25
2022-12-11T20:36:25.481Z,28.00
2022-12-11T20:38:53.227Z,37.78
2022-12-11T20:41:22.862Z,25.33
2022-12-11T20:43:50.193Z,27.10
2022-12-11T20:46:18.123Z,23.17
2022-12-11T20:48:45.172Z,27.90
2022-12-11T20:51:14.193Z,23.52
2022-12-11T20:53:42.219Z,24.25
2022-12-11T20:56:11.249Z,25.95
2022-12-11T20:58:39.796Z,26.67
2022-12-11T21:01:12.611Z,23.20
2022-12-11T21:03:42.167Z,26.08
2022-12-11T21:06:09.309Z,24.80
2022-12-11T21:08:35.922Z,23.58
2022-12-11T21:11:05.615Z,26.02
2022-12-11T21:13:32.268Z,25.38
2022-12-11T21:16:04.996Z,26.42
2022-12-11T21:20:58.187Z,25.63
2022-12-11T21:23:25.534Z,25.02
2022-12-11T21:25:52.630Z,22.13
2022-12-11T21:28:20.184Z,23.90
2022-12-11T21:30:47.291Z,25.52
2022-12-11T21:33:16.365Z,25.10
2022-12-11T21:35:43.159Z,26.02
2022-12-11T21:38:09.764Z,24.95
2022-12-11T21:40:36.682Z,26.90
2022-12-11T21:43:03.546Z,26.08
2022-12-11T21:48:18.250Z,25.08
2022-12-11T21:50:44.825Z,29.05
2022-12-11T21:53:11.460Z,28.27
2022-12-11T21:55:40.369Z,27.33
2022-12-11T21:58:07.050Z,27.25
2022-12-11T22:00:35.571Z,27.95
2022-12-11T22:03:02.549Z,26.00
2022-12-11T22:05:30.873Z,29.90
2022-12-11T22:07:57.484Z,27.48
2022-12-11T22:10:24.115Z,27.63
2022-12-11T22:12:50.879Z,32.78
2022-12-11T22:15:17.484Z,31.05
2022-12-11T22:17:44.367Z,29.02
2022-12-11T22:20:11.761Z,32.75
2022-12-11T22:22:39.769Z,30.15
2022-12-11T22:25:07.088Z,29.55
2022-12-11T22:27:33.998Z,33.15
2022-12-11T22:30:00.664Z,28.67
2022-12-11T22:32:27.408Z,28.42
2022-12-11T22:34:54.478Z,28.95
2022-12-11T22:37:21.130Z,34.03
2022-12-11T22:39:49.136Z,29.92
2022-12-11T22:42:15.893Z,34.90
2022-12-11T22:44:42.926Z,30.13
2022-12-11T22:47:09.671Z,28.63
2022-12-11T22:49:36.310Z,32.50
2022-12-11T22:52:03.055Z,35.85
2022-12-11T22:54:29.704Z,34.47
2022-12-11T22:56:59.507Z,31.08
2022-12-11T22:59:26.200Z,32.40
2022-12-11T23:01:52.788Z,32.22
2022-12-11T23:04:19.555Z,32.67
2022-12-11T23:06:46.177Z,29.25
2022-12-11T23:09:13.437Z,32.45
2022-12-11T23:11:40.243Z,31.33
2022-12-11T23:14:12.846Z,32.33
2022-12-11T23:16:39.564Z,34.42
2022-12-11T23:19:06.256Z,34.30
2022-12-11T23:21:33.041Z,35.97
2022-12-11T23:23:59.824Z,31.70
2022-12-11T23:26:27.705Z,30.00
2022-12-11T23:28:55.406Z,33.67
2022-12-11T23:31:24.490Z,32.17
2022-12-11T23:33:51.373Z,33.10
2022-12-11T23:36:18.434Z,26.30
2022-12-11T23:38:49.549Z,29.38
2022-12-11T23:41:19.672Z,39.40
2022-12-11T23:43:46.520Z,36.67
2022-12-11T23:46:15.489Z,33.53
2022-12-11T23:48:44.032Z,32.65
2022-12-11T23:51:13.888Z,29.80
2022-12-11T23:53:41.404Z,29.70
2022-12-11T23:56:10.210Z,34.00
2022-12-11T23:58:38.121Z,32.70
